createdAt,value
2019-04-05T00:01:12.326Z,0.50
2019-04-05T00:03:43.869Z,0.54
2019-04-05T00:06:15.742Z,0.53
2019-04-05T00:08:47.395Z,0.55
2019-04-05T00:11:18.756Z,0.55
2019-04-05T00:13:50.499Z,0.54
2019-04-05T00:16:21.838Z,0.52
2019-04-05T00:18:53.396Z,0.50
2019-04-05T00:21:24.945Z,0.50
2019-04-05T00:23:56.606Z,0.47
2019-04-05T00:26:28.154Z,0.48
2019-04-05T00:29:00.729Z,0.43
2019-04-05T00:31:32.552Z,0.48
2019-04-05T00:34:04.200Z,0.49
2019-04-05T00:36:35.968Z,0.54
2019-04-05T00:39:08.993Z,0.50
2019-04-05T00:41:40.469Z,0.48
2019-04-05T00:44:12.730Z,0.42
2019-04-05T00:46:44.816Z,0.36
2019-04-05T00:49:16.638Z,0.31
2019-04-05T00:51:48.216Z,0.28
2019-04-05T00:54:19.958Z,0.20
2019-04-05T00:56:51.291Z,0.18
2019-04-05T00:59:22.972Z,0.18
2019-04-05T01:01:54.408Z,0.21
2019-04-05T01:04:26.067Z,0.19
2019-04-05T01:06:57.925Z,0.22
2019-04-05T01:09:29.698Z,0.24
2019-04-05T01:12:01.024Z,0.22
2019-04-05T01:14:32.447Z,0.18
2019-04-05T01:17:04.371Z,0.21
2019-04-05T01:19:35.688Z,0.18
2019-04-05T01:22:07.248Z,0.18
2019-04-05T01:24:39.027Z,0.21
2019-04-05T01:27:10.858Z,0.20
2019-04-05T01:29:43.187Z,0.18
2019-04-05T01:32:14.739Z,0.13
2019-04-05T01:34:46.277Z,0.07
2019-04-05T01:37:18.102Z,0.01
2019-04-05T01:39:51.190Z,-0.04
2019-04-05T01:42:23.144Z,-0.04
2019-04-05T01:44:54.900Z,-0.02
2019-04-05T01:47:26.666Z,-0.01
2019-04-05T01:49:58.219Z,0.08
2019-04-05T01:52:29.866Z,0.10
2019-04-05T01:55:01.291Z,0.18
2019-04-05T01:57:33.074Z,0.12
2019-04-05T02:00:10.189Z,0.14
2019-04-05T02:02:41.708Z,0.12
2019-04-05T02:05:13.874Z,0.20
2019-04-05T02:07:45.427Z,0.15
2019-04-05T02:10:17.073Z,0.24
2019-04-05T02:12:48.737Z,0.22
2019-04-05T02:15:27.403Z,0.15
2019-04-05T02:17:58.882Z,0.20
2019-04-05T02:20:30.255Z,0.25
2019-04-05T02:23:01.822Z,0.29
2019-04-05T02:25:33.331Z,0.28
2019-04-05T02:28:05.042Z,0.23
2019-04-05T02:30:36.680Z,0.21
2019-04-05T02:33:08.262Z,0.16
2019-04-05T02:35:39.612Z,0.12
2019-04-05T02:38:11.262Z,-0.28
2019-04-05T02:40:43.334Z,-1.20
2019-04-05T02:43:15.567Z,-1.22
2019-04-05T02:45:47.082Z,-1.27
2019-04-05T02:48:18.771Z,-1.48
2019-04-05T02:50:52.490Z,-1.33
2019-04-05T02:53:24.338Z,-1.35
2019-04-05T02:55:55.783Z,-1.28
2019-04-05T02:58:27.431Z,-1.41
2019-04-05T03:00:59.147Z,-1.56
2019-04-05T03:03:31.030Z,-1.27
2019-04-05T03:06:02.617Z,-1.27
2019-04-05T03:08:34.366Z,-1.26
2019-04-05T03:11:06.865Z,-1.09
2019-04-05T03:13:47.310Z,-1.06
2019-04-05T03:16:21.310Z,-1.03
2019-04-05T03:18:58.936Z,-1.00
2019-04-05T03:21:30.481Z,-0.91
2019-04-05T03:24:03.731Z,-0.81
2019-04-05T03:26:38.441Z,-0.58
2019-04-05T03:31:44.921Z,-0.35
2019-04-05T03:34:16.342Z,-0.33
2019-04-05T03:36:51.413Z,-0.10
2019-04-05T03:39:23.093Z,0.73
2019-04-05T03:41:54.788Z,1.94
2019-04-05T03:44:26.817Z,3.12
2019-04-05T03:46:59.578Z,4.22
2019-04-05T03:49:31.265Z,5.41
2019-04-05T03:52:03.434Z,6.46
2019-04-05T03:54:36.113Z,7.57
2019-04-05T03:57:07.871Z,8.59
2019-04-05T03:59:39.637Z,9.34
2019-04-05T04:02:11.215Z,10.15
2019-04-05T04:04:43.383Z,11.19
2019-04-05T04:07:14.686Z,11.54
2019-04-05T04:09:46.613Z,12.08
2019-04-05T04:12:18.419Z,13.00
2019-04-05T04:14:50.006Z,13.60
2019-04-05T04:17:21.838Z,14.26
2019-04-05T04:19:53.198Z,14.95
2019-04-05T04:22:27.625Z,15.81
2019-04-05T04:24:59.474Z,15.76
2019-04-05T04:27:30.930Z,16.21
2019-04-05T04:30:02.671Z,17.42
2019-04-05T04:32:35.438Z,18.31
2019-04-05T04:35:06.960Z,18.88
2019-04-05T04:37:38.638Z,18.86
2019-04-05T04:40:10.228Z,19.49
2019-04-05T04:42:42.068Z,19.34
2019-04-05T04:45:14.347Z,19.25
2019-04-05T04:47:46.369Z,19.89
2019-04-05T04:50:17.856Z,20.45
2019-04-05T04:52:49.637Z,21.75
2019-04-05T04:55:21.924Z,22.46
2019-04-05T04:57:53.718Z,21.34
2019-04-05T05:00:25.194Z,22.11
2019-04-05T05:02:56.910Z,22.79
2019-04-05T05:05:28.193Z,23.35
2019-04-05T05:08:00.054Z,24.13
2019-04-05T05:10:31.875Z,22.95
2019-04-05T05:13:03.817Z,23.21
2019-04-05T05:15:35.263Z,24.14
2019-04-05T05:18:06.882Z,25.25
2019-04-05T05:20:38.366Z,26.36
2019-04-05T05:23:10.182Z,25.78
2019-04-05T05:25:41.945Z,25.23
2019-04-05T05:28:13.625Z,26.21
2019-04-05T05:30:45.096Z,26.95
2019-04-05T05:33:16.720Z,26.28
2019-04-05T05:35:48.114Z,26.61
2019-04-05T05:38:19.821Z,27.02
2019-04-05T05:40:51.372Z,26.85
2019-04-05T05:43:24.013Z,27.79
2019-04-05T05:45:55.603Z,28.00
2019-04-05T05:48:27.259Z,27.67
2019-04-05T05:50:58.926Z,28.14
2019-04-05T05:53:30.565Z,28.40
2019-04-05T05:56:02.226Z,28.52
2019-04-05T05:58:33.885Z,27.91
2019-04-05T06:01:05.431Z,28.15
2019-04-05T06:03:37.248Z,28.49
2019-04-05T06:06:08.677Z,29.41
2019-04-05T06:08:40.831Z,29.88
2019-04-05T06:11:12.768Z,30.19
2019-04-05T06:13:43.803Z,29.94
2019-04-05T06:16:15.403Z,29.43
2019-04-05T06:18:48.636Z,28.67
2019-04-05T06:21:20.622Z,28.63
2019-04-05T06:23:52.476Z,28.92
2019-04-05T06:26:23.879Z,28.42
2019-04-05T06:28:55.590Z,28.45
2019-04-05T06:31:27.352Z,29.68
2019-04-05T06:33:59.002Z,29.86
2019-04-05T06:36:30.559Z,29.18
2019-04-05T06:39:01.934Z,30.82
2019-04-05T06:41:34.070Z,30.21
2019-04-05T06:44:05.641Z,31.51
2019-04-05T06:46:37.684Z,31.38
2019-04-05T06:49:09.557Z,32.53
2019-04-05T06:51:41.200Z,32.02
2019-04-05T06:54:12.557Z,31.92
2019-04-05T06:56:44.205Z,32.68
2019-04-05T06:59:15.655Z,32.73
2019-04-05T07:01:47.451Z,34.10
2019-04-05T07:04:19.270Z,33.55
2019-04-05T07:06:51.030Z,33.96
2019-04-05T07:09:22.475Z,33.91
2019-04-05T07:11:54.039Z,32.64
2019-04-05T07:14:25.310Z,32.30
2019-04-05T07:16:57.141Z,32.91
2019-04-05T07:19:30.072Z,32.30
2019-04-05T07:22:01.006Z,31.58
2019-04-05T07:24:32.317Z,31.53
2019-04-05T07:27:03.783Z,32.85
2019-04-05T07:29:35.563Z,33.30
2019-04-05T07:32:07.091Z,34.10
2019-04-05T07:34:38.791Z,32.63
2019-04-05T07:37:10.183Z,32.33
2019-04-05T07:39:41.850Z,32.92
2019-04-05T07:42:13.287Z,33.32
2019-04-05T07:44:45.007Z,33.59
2019-04-05T07:47:16.483Z,33.84
2019-04-05T07:49:48.855Z,33.67
2019-04-05T07:52:19.834Z,32.46
2019-04-05T07:54:51.252Z,32.01
2019-04-05T07:57:22.805Z,30.00
2019-04-05T07:59:54.566Z,26.60
2019-04-05T08:02:26.022Z,23.15
2019-04-05T08:04:57.880Z,19.91
2019-04-05T08:07:31.889Z,17.59
2019-04-05T08:10:03.437Z,15.51
2019-04-05T08:12:35.155Z,15.51
2019-04-05T08:15:06.887Z,14.62
2019-04-05T08:17:38.305Z,14.52
2019-04-05T08:20:10.012Z,14.49
2019-04-05T08:22:41.873Z,13.72
2019-04-05T08:25:13.579Z,13.57
2019-04-05T08:27:45.472Z,13.50
2019-04-05T08:30:16.685Z,12.93
2019-04-05T08:32:48.165Z,12.91
2019-04-05T08:35:19.519Z,13.14
2019-04-05T08:37:51.648Z,13.21
2019-04-05T08:40:23.362Z,13.45
2019-04-05T08:42:54.861Z,13.49
2019-04-05T08:45:26.815Z,13.20
2019-04-05T08:47:58.579Z,13.06
2019-04-05T08:50:30.204Z,12.63
2019-04-05T08:53:01.683Z,12.61
2019-04-05T08:55:33.557Z,12.56
2019-04-05T08:58:04.883Z,12.97
2019-04-05T09:00:36.433Z,13.00
2019-04-05T09:03:07.931Z,13.16
2019-04-05T09:05:39.674Z,13.28
2019-04-05T09:08:11.336Z,13.36
2019-04-05T09:10:43.261Z,13.43
2019-04-05T09:13:14.711Z,13.42
2019-04-05T09:15:46.454Z,13.48
2019-04-05T09:18:18.697Z,13.40
2019-04-05T09:20:50.206Z,13.46
2019-04-05T09:23:21.947Z,13.48
2019-04-05T09:25:53.298Z,13.25
2019-04-05T09:28:25.119Z,13.10
2019-04-05T09:30:56.815Z,13.28
2019-04-05T09:33:28.379Z,13.15
2019-04-05T09:35:59.967Z,13.27
2019-04-05T09:38:32.011Z,13.20
2019-04-05T09:41:03.896Z,13.27
2019-04-05T09:43:35.930Z,13.29
2019-04-05T09:46:07.573Z,13.28
2019-04-05T09:48:39.341Z,13.35
2019-04-05T09:51:10.780Z,13.38
2019-04-05T09:53:42.971Z,13.55
2019-04-05T09:56:14.184Z,13.51
2019-04-05T09:58:46.039Z,13.48
2019-04-05T10:01:17.837Z,13.64
2019-04-05T10:03:49.279Z,13.32
2019-04-05T10:06:20.931Z,13.05
2019-04-05T10:08:52.569Z,12.76
2019-04-05T10:11:24.138Z,12.54
2019-04-05T10:13:55.978Z,12.78
2019-04-05T10:16:27.460Z,12.78
2019-04-05T10:18:59.631Z,12.96
2019-04-05T10:21:31.299Z,12.78
2019-04-05T10:24:02.860Z,12.92
2019-04-05T10:26:34.454Z,13.02
2019-04-05T10:29:05.728Z,13.02
2019-04-05T10:31:37.567Z,12.98
2019-04-05T10:34:09.426Z,12.97
2019-04-05T10:36:42.207Z,12.81
2019-04-05T10:39:13.706Z,12.87
2019-04-05T10:41:45.543Z,12.95
2019-04-05T10:44:17.850Z,12.91
2019-04-05T10:46:49.585Z,13.07
2019-04-05T10:49:21.167Z,13.23
2019-04-05T10:51:52.852Z,13.33
2019-04-05T10:54:25.248Z,13.20
2019-04-05T10:56:57.023Z,13.29
2019-04-05T10:59:29.582Z,13.34
2019-04-05T11:02:01.987Z,13.37
2019-04-05T11:04:33.611Z,13.27
2019-04-05T11:07:05.760Z,13.12
2019-04-05T11:09:37.130Z,13.24
2019-04-05T11:12:09.814Z,13.37
2019-04-05T11:14:41.286Z,13.36
2019-04-05T11:17:12.886Z,13.35
2019-04-05T11:19:44.338Z,13.44
2019-04-05T11:22:20.137Z,13.27
2019-04-05T11:24:50.015Z,13.38
2019-04-05T11:27:21.568Z,13.30
2019-04-05T11:29:53.212Z,13.31
2019-04-05T11:32:24.662Z,13.37
2019-04-05T11:34:56.424Z,13.53
2019-04-05T11:37:28.133Z,13.58
2019-04-05T11:40:00.082Z,13.37
2019-04-05T11:42:33.046Z,13.36
2019-04-05T11:45:05.747Z,13.19
2019-04-05T11:47:37.873Z,13.38
2019-04-05T11:50:10.919Z,13.45
2019-04-05T11:52:42.582Z,13.27
2019-04-05T11:55:18.176Z,13.30
2019-04-05T11:57:48.702Z,13.41
2019-04-05T12:00:37.135Z,13.35
2019-04-05T12:03:10.692Z,13.36
2019-04-05T12:05:42.512Z,13.47
2019-04-05T12:08:13.855Z,13.40
2019-04-05T12:10:46.532Z,13.31
2019-04-05T12:13:18.209Z,13.32
2019-04-05T12:15:49.840Z,13.25
2019-04-05T12:18:21.197Z,13.37
2019-04-05T12:20:59.909Z,13.44
2019-04-05T12:23:25.969Z,13.32
2019-04-05T12:25:57.722Z,13.30
2019-04-05T12:28:29.179Z,13.38
2019-04-05T12:31:00.782Z,13.19
2019-04-05T12:33:32.787Z,13.12
2019-04-05T12:36:04.616Z,13.19
2019-04-05T12:38:36.174Z,13.27
2019-04-05T12:41:10.709Z,13.24
2019-04-05T12:43:44.014Z,13.05
2019-04-05T12:46:16.096Z,13.00
2019-04-05T12:48:48.072Z,13.16
2019-04-05T12:51:19.776Z,13.19
2019-04-05T12:53:51.734Z,13.34
2019-04-05T12:56:24.386Z,13.52
2019-04-05T12:58:56.730Z,13.54
2019-04-05T13:01:28.734Z,13.42
2019-04-05T13:04:00.202Z,13.35
2019-04-05T13:06:32.497Z,13.21
2019-04-05T13:09:05.908Z,13.18
2019-04-05T13:11:37.719Z,13.13
2019-04-05T13:14:09.395Z,13.26
2019-04-05T13:16:41.121Z,13.31
2019-04-05T13:19:12.898Z,13.18
2019-04-05T13:21:44.452Z,13.16
2019-04-05T13:24:16.120Z,13.19
2019-04-05T13:26:47.757Z,13.22
2019-04-05T13:29:20.281Z,13.21
2019-04-05T13:31:51.997Z,13.28
2019-04-05T13:34:25.957Z,13.32
2019-04-05T13:36:59.359Z,13.42
2019-04-05T13:39:30.879Z,13.38
2019-04-05T13:42:02.510Z,13.35
2019-04-05T13:44:35.667Z,13.27
2019-04-05T13:47:08.480Z,13.27
2019-04-05T13:49:40.675Z,13.33
2019-04-05T13:52:12.762Z,13.27
2019-04-05T13:54:44.308Z,13.04
2019-04-05T13:57:16.449Z,13.18
2019-04-05T13:59:48.938Z,13.17
2019-04-05T14:02:21.131Z,13.15
2019-04-05T14:04:54.296Z,13.18
2019-04-05T14:07:26.492Z,13.19
2019-04-05T14:09:57.889Z,13.18
2019-04-05T14:12:31.295Z,13.19
2019-04-05T14:15:02.741Z,13.13
2019-04-05T14:17:35.053Z,12.99
2019-04-05T14:20:09.086Z,13.01
2019-04-05T14:22:40.800Z,13.00
2019-04-05T14:25:12.573Z,12.99
2019-04-05T14:27:44.615Z,12.93
2019-04-05T14:30:16.037Z,12.88
2019-04-05T14:32:50.852Z,12.86
2019-04-05T14:35:24.532Z,12.83
2019-04-05T14:37:55.244Z,12.88
2019-04-05T14:40:29.365Z,12.86
2019-04-05T14:43:00.258Z,12.85
2019-04-05T14:45:31.800Z,12.56
2019-04-05T14:48:03.599Z,12.76
2019-04-05T14:50:35.234Z,12.72
2019-04-05T14:53:07.001Z,12.64
2019-04-05T14:55:38.559Z,12.58
2019-04-05T14:58:10.783Z,12.51
2019-04-05T15:00:42.107Z,12.45
2019-04-05T15:03:14.253Z,12.36
2019-04-05T15:05:46.033Z,12.28
2019-04-05T15:08:20.312Z,12.20
2019-04-05T15:10:51.479Z,12.11
2019-04-05T15:13:24.310Z,12.06
2019-04-05T15:15:56.786Z,12.01
2019-04-05T15:18:28.503Z,11.95
2019-04-05T15:21:00.118Z,11.98
2019-04-05T15:23:32.061Z,11.96
2019-04-05T15:26:03.960Z,11.91
2019-04-05T15:28:35.781Z,11.83
2019-04-05T15:31:07.297Z,11.74
2019-04-05T15:33:39.051Z,11.69
2019-04-05T15:36:10.605Z,11.62
2019-04-05T15:38:42.308Z,11.51
2019-04-05T15:41:13.951Z,11.48
2019-04-05T15:43:45.864Z,11.40
2019-04-05T15:46:17.577Z,11.32
2019-04-05T15:48:51.814Z,11.26
2019-04-05T15:51:24.818Z,11.15
2019-04-05T15:53:56.329Z,11.04
2019-04-05T15:56:27.730Z,10.90
2019-04-05T15:59:03.708Z,10.78
2019-04-05T16:01:34.358Z,10.65
2019-04-05T16:04:06.153Z,10.55
2019-04-05T16:06:39.060Z,10.46
2019-04-05T16:09:13.369Z,10.30
2019-04-05T16:11:44.921Z,10.25
2019-04-05T16:14:16.736Z,10.11
2019-04-05T16:16:48.429Z,10.03
2019-04-05T16:19:20.477Z,10.03
2019-04-05T16:21:52.501Z,9.98
2019-04-05T16:24:23.816Z,9.92
2019-04-05T16:26:55.735Z,9.86
2019-04-05T16:29:27.220Z,9.81
2019-04-05T16:31:59.143Z,9.74
2019-04-05T16:34:30.597Z,9.73
2019-04-05T16:37:02.351Z,9.65
2019-04-05T16:39:33.771Z,9.56
2019-04-05T16:42:05.382Z,9.54
2019-04-05T16:44:37.438Z,9.62
2019-04-05T16:47:09.544Z,9.58
2019-04-05T16:49:40.833Z,9.60
2019-04-05T16:52:13.165Z,9.62
2019-04-05T16:54:44.448Z,9.49
2019-04-05T16:57:16.630Z,9.42
2019-04-05T16:59:48.471Z,9.38
2019-04-05T17:02:20.063Z,9.19
2019-04-05T17:04:51.378Z,9.06
2019-04-05T17:07:57.031Z,9.04
2019-04-05T17:10:29.711Z,8.86
2019-04-05T17:13:01.176Z,8.82
2019-04-05T17:15:32.926Z,8.89
2019-04-05T17:18:05.783Z,8.80
2019-04-05T17:20:37.568Z,8.80
2019-04-05T17:23:08.889Z,8.78
2019-04-05T17:25:40.791Z,8.73
2019-04-05T17:28:12.525Z,8.62
2019-04-05T17:30:44.393Z,8.62
2019-04-05T17:33:16.079Z,8.60
2019-04-05T17:35:47.696Z,8.53
2019-04-05T17:38:19.336Z,8.26
2019-04-05T17:40:50.950Z,8.38
2019-04-05T17:43:23.295Z,8.31
2019-04-05T17:45:55.123Z,8.48
2019-04-05T17:48:26.863Z,8.39
2019-04-05T17:50:58.454Z,8.46
2019-04-05T17:53:29.911Z,8.54
2019-04-05T17:56:01.508Z,8.57
2019-04-05T17:58:33.617Z,8.43
2019-04-05T18:01:05.584Z,8.38
2019-04-05T18:03:37.558Z,8.30
2019-04-05T18:06:08.945Z,8.16
2019-04-05T18:08:40.860Z,8.07
2019-04-05T18:11:12.235Z,8.12
2019-04-05T18:13:44.821Z,8.15
2019-04-05T18:16:16.333Z,8.18
2019-04-05T18:18:48.250Z,8.16
2019-04-05T18:21:19.647Z,8.18
2019-04-05T18:23:51.395Z,8.27
2019-04-05T18:26:22.752Z,8.19
2019-04-05T18:28:54.808Z,8.17
2019-04-05T18:31:26.299Z,8.17
2019-04-05T18:33:58.351Z,8.07
2019-04-05T18:36:29.983Z,7.95
2019-04-05T18:39:01.667Z,7.83
2019-04-05T18:41:34.694Z,7.80
2019-04-05T18:44:06.209Z,7.68
2019-04-05T18:46:37.532Z,7.57
2019-04-05T18:49:09.711Z,7.61
2019-04-05T18:51:41.043Z,7.53
2019-04-05T18:54:12.710Z,7.64
2019-04-05T18:56:44.251Z,7.55
2019-04-05T18:59:16.027Z,7.59
2019-04-05T19:01:47.476Z,7.49
2019-04-05T19:04:19.423Z,7.30
2019-04-05T19:06:52.186Z,7.30
2019-04-05T19:09:25.843Z,7.27
2019-04-05T19:11:57.252Z,7.32
2019-04-05T19:14:28.869Z,7.28
2019-04-05T19:17:00.340Z,7.31
2019-04-05T19:19:32.205Z,7.23
2019-04-05T19:22:03.771Z,7.16
2019-04-05T19:24:35.439Z,7.12
2019-04-05T19:27:07.082Z,6.98
2019-04-05T19:29:38.937Z,6.72
2019-04-05T19:49:24.536Z,6.68
2019-04-05T19:51:56.255Z,6.58
2019-04-05T19:54:27.841Z,6.51
2019-04-05T19:56:59.409Z,6.39
2019-04-05T19:59:31.221Z,6.21
2019-04-05T20:02:03.011Z,6.10
2019-04-05T20:04:34.695Z,5.95
2019-04-05T20:07:06.259Z,5.91
2019-04-05T20:09:38.809Z,5.88
2019-04-05T20:12:10.566Z,6.02
2019-04-05T20:14:42.235Z,6.13
2019-04-05T20:17:14.110Z,6.21
2019-04-05T20:19:45.518Z,6.14
2019-04-05T20:22:17.283Z,6.04
2019-04-05T20:24:49.143Z,5.93
2019-04-05T20:27:20.938Z,5.83
2019-04-05T20:29:52.484Z,5.80
2019-04-05T20:32:24.107Z,5.46
2019-04-05T20:34:55.725Z,5.20
2019-04-05T20:37:27.539Z,4.87
2019-04-05T20:39:59.082Z,4.71
2019-04-05T20:42:30.981Z,4.62
2019-04-05T20:45:02.767Z,4.47
2019-04-05T20:47:34.766Z,4.43
2019-04-05T20:50:07.247Z,4.44
2019-04-05T20:52:38.487Z,4.39
2019-04-05T20:55:09.516Z,4.36
2019-04-05T20:57:41.409Z,4.32
2019-04-05T21:00:13.553Z,4.27
2019-04-05T21:02:45.045Z,4.44
2019-04-05T21:05:24.851Z,4.36
2019-04-05T21:07:50.078Z,4.53
2019-04-05T21:10:21.519Z,4.50
2019-04-05T21:12:53.220Z,4.69
2019-04-05T21:15:24.717Z,4.93
2019-04-05T21:17:56.378Z,5.05
2019-04-05T21:20:27.826Z,5.35
2019-04-05T21:22:59.998Z,5.44
2019-04-05T21:25:31.336Z,5.59
2019-04-05T21:28:03.154Z,5.66
2019-04-05T21:30:34.695Z,5.73
2019-04-05T21:33:06.707Z,5.72
2019-04-05T21:35:38.448Z,5.82
2019-04-05T21:38:10.373Z,5.85
2019-04-05T21:40:41.828Z,5.92
2019-04-05T21:43:13.530Z,5.83
2019-04-05T21:45:45.181Z,5.91
2019-04-05T21:48:16.817Z,5.84
2019-04-05T21:50:48.499Z,5.92
2019-04-05T21:53:20.157Z,5.89
2019-04-05T21:55:51.609Z,5.86
2019-04-05T21:58:25.888Z,5.82
2019-04-05T22:00:58.335Z,5.68
2019-04-05T22:03:30.286Z,5.64
2019-04-05T22:06:03.147Z,5.81
2019-04-05T22:08:36.045Z,5.78
2019-04-05T22:11:08.069Z,5.85
2019-04-05T22:13:40.172Z,5.95
2019-04-05T22:16:12.125Z,6.03
2019-04-05T22:18:43.937Z,6.11
2019-04-05T22:21:15.649Z,6.09
2019-04-05T22:23:47.651Z,6.07
2019-04-05T22:26:19.358Z,6.16
2019-04-05T22:28:51.682Z,6.07
2019-04-05T22:31:23.382Z,5.97
2019-04-05T22:33:55.273Z,5.94
2019-04-05T22:36:27.300Z,6.03
2019-04-05T22:38:59.570Z,6.17
2019-04-05T22:41:31.173Z,6.23
2019-04-05T22:44:03.023Z,6.22
2019-04-05T22:46:34.600Z,6.19
2019-04-05T22:49:06.342Z,6.01
2019-04-05T22:51:38.569Z,5.79
2019-04-05T22:54:10.362Z,5.55
2019-04-05T22:56:42.085Z,5.31
2019-04-05T22:59:14.256Z,5.12
2019-04-05T23:01:46.150Z,4.98
2019-04-05T23:04:18.481Z,4.96
2019-04-05T23:06:50.121Z,4.88
2019-04-05T23:09:22.538Z,4.78
2019-04-05T23:11:54.209Z,4.62
2019-04-05T23:14:26.032Z,4.56
2019-04-05T23:16:57.615Z,4.46
2019-04-05T23:19:29.965Z,4.47
2019-04-05T23:22:01.710Z,4.57
2019-04-05T23:24:33.598Z,4.68
2019-04-05T23:27:05.308Z,4.76
2019-04-05T23:29:37.427Z,4.66
2019-04-05T23:32:09.290Z,4.49
2019-04-05T23:34:40.529Z,4.30
2019-04-05T23:37:12.339Z,4.25
2019-04-05T23:39:44.086Z,4.15
2019-04-05T23:42:16.019Z,4.00
2019-04-05T23:44:48.071Z,3.78
2019-04-05T23:47:20.069Z,3.42
2019-04-05T23:49:51.647Z,3.15
2019-04-05T23:52:23.734Z,2.96
2019-04-05T23:54:55.396Z,2.80
2019-04-05T23:57:27.231Z,2.69
2019-04-05T23:59:59.092Z,2.66
